createdAt,value
2023-04-15T00:03:34.726Z,59.75
2023-04-15T00:08:37.929Z,59.75
2023-04-15T00:13:42.645Z,59.83
2023-04-15T00:18:45.867Z,59.86
2023-04-15T00:23:52.470Z,59.93
2023-04-15T00:28:56.770Z,60.27
2023-04-15T00:33:59.707Z,60.14
2023-04-15T00:39:03.203Z,60.26
2023-04-15T00:44:07.834Z,60.32
2023-04-15T00:49:11.236Z,60.53
2023-04-15T00:54:14.623Z,60.60
2023-04-15T00:59:19.574Z,60.62
2023-04-15T01:04:22.436Z,60.80
2023-04-15T01:09:25.612Z,60.74
2023-04-15T01:14:30.184Z,60.88
2023-04-15T01:19:33.165Z,61.22
2023-04-15T01:24:38.306Z,61.39
2023-04-15T01:29:43.050Z,61.60
2023-04-15T01:34:46.108Z,62.08
2023-04-15T01:39:48.873Z,62.39
2023-04-15T01:44:53.650Z,62.76
2023-04-15T01:49:56.761Z,63.30
2023-04-15T01:54:59.497Z,63.51
2023-04-15T02:00:03.751Z,63.74
2023-04-15T02:05:16.294Z,63.96
2023-04-15T02:10:23.297Z,64.14
2023-04-15T02:15:27.699Z,64.14
2023-04-15T02:20:32.039Z,64.18
2023-04-15T02:25:34.833Z,64.16
2023-04-15T02:30:41.939Z,64.45
2023-04-15T02:35:45.424Z,64.59
2023-04-15T02:40:49.609Z,64.52
2023-04-15T02:45:53.829Z,64.64
2023-04-15T02:51:12.452Z,64.66
2023-04-15T02:56:16.982Z,64.89
2023-04-15T03:01:21.237Z,64.95
2023-04-15T03:06:24.686Z,65.18
2023-04-15T03:11:28.164Z,65.18
2023-04-15T03:16:32.268Z,65.42
2023-04-15T03:21:35.095Z,65.44
2023-04-15T03:26:37.919Z,65.36
2023-04-15T03:31:48.330Z,65.69
2023-04-15T03:36:52.489Z,65.54
2023-04-15T03:41:55.268Z,65.81
2023-04-15T03:46:59.468Z,66.01
2023-04-15T03:52:02.227Z,65.94
2023-04-15T03:57:05.203Z,66.20
2023-04-15T04:02:09.445Z,66.46
2023-04-15T04:07:16.682Z,66.60
2023-04-15T04:12:19.413Z,66.51
2023-04-15T04:17:23.646Z,66.70
2023-04-15T04:22:26.975Z,66.90
2023-04-15T04:27:30.000Z,66.85
2023-04-15T04:32:34.133Z,66.93
2023-04-15T04:37:36.910Z,67.12
2023-04-15T04:42:40.252Z,67.33
2023-04-15T04:47:44.470Z,67.35
2023-04-15T04:52:47.211Z,67.54
2023-04-15T04:57:50.090Z,67.51
2023-04-15T05:02:54.406Z,67.75
2023-04-15T05:07:57.195Z,67.90
2023-04-15T05:13:00.325Z,68.06
2023-04-15T05:18:04.570Z,68.12
2023-04-15T05:23:07.384Z,68.21
2023-04-15T05:28:10.089Z,68.22
2023-04-15T05:33:14.254Z,68.42
2023-04-15T05:38:16.992Z,68.74
2023-04-15T05:43:19.761Z,68.79
2023-04-15T05:48:24.202Z,68.74
2023-04-15T05:53:26.949Z,68.59
2023-04-15T05:58:29.693Z,68.54
2023-04-15T06:03:34.473Z,68.33
2023-04-15T06:08:37.466Z,68.56
2023-04-15T06:13:40.534Z,68.48
2023-04-15T06:18:44.609Z,68.59
2023-04-15T06:23:47.514Z,68.60
2023-04-15T06:28:50.546Z,68.84
2023-04-15T06:33:54.582Z,68.58
2023-04-15T06:38:57.600Z,68.47
2023-04-15T06:44:00.321Z,68.48
2023-04-15T06:49:05.339Z,68.52
2023-04-15T06:54:08.106Z,68.70
2023-04-15T06:59:10.838Z,68.84
2023-04-15T07:04:14.955Z,68.41
2023-04-15T07:09:18.121Z,66.48
2023-04-15T07:14:20.891Z,66.08
2023-04-15T07:19:25.137Z,64.32
2023-04-15T07:24:27.989Z,63.12
2023-04-15T07:29:31.408Z,61.92
2023-04-15T07:34:35.536Z,61.38
2023-04-15T07:39:38.301Z,60.90
2023-04-15T07:44:41.160Z,60.66
2023-04-15T07:49:45.579Z,60.46
2023-04-15T07:54:48.458Z,60.89
2023-04-15T07:59:51.184Z,62.47
2023-04-15T08:04:55.375Z,61.40
2023-04-15T08:11:51.313Z,61.80
2023-04-15T08:16:54.124Z,61.85
2023-04-15T08:21:57.596Z,62.12
2023-04-15T08:27:04.428Z,61.28
2023-04-15T08:32:08.064Z,61.78
2023-04-15T08:37:11.520Z,63.61
2023-04-15T08:42:18.511Z,62.88
2023-04-15T08:47:23.560Z,63.11
2023-04-15T08:52:27.527Z,62.89
2023-04-15T08:57:32.699Z,62.90
2023-04-15T09:02:35.963Z,62.77
2023-04-15T09:07:38.864Z,62.58
2023-04-15T09:12:43.018Z,62.60
2023-04-15T09:17:46.507Z,62.77
2023-04-15T09:22:50.503Z,62.94
2023-04-15T09:27:55.859Z,62.79
2023-04-15T09:33:00.677Z,62.39
2023-04-15T09:38:05.315Z,62.36
2023-04-15T09:43:12.918Z,61.83
2023-04-15T09:48:18.703Z,62.13
2023-04-15T09:53:22.936Z,61.67
2023-04-15T09:58:28.429Z,61.80
2023-04-15T10:03:33.328Z,61.59
2023-04-15T10:08:36.135Z,61.92
2023-04-15T10:19:10.685Z,59.61
2023-04-15T10:24:14.520Z,60.30
2023-04-15T10:34:36.693Z,60.46
2023-04-15T10:39:41.636Z,60.50
2023-04-15T10:44:46.286Z,60.80
2023-04-15T10:49:52.433Z,61.71
2023-04-15T10:55:05.363Z,61.54
2023-04-15T11:00:13.809Z,63.62
2023-04-15T11:05:20.668Z,64.82
2023-04-15T11:10:57.066Z,65.24
2023-04-15T11:16:02.165Z,67.99
2023-04-15T11:21:09.635Z,64.62
2023-04-15T11:26:12.880Z,63.56
2023-04-15T11:31:19.900Z,67.17
2023-04-15T11:36:26.477Z,64.04
2023-04-15T11:41:29.380Z,64.24
2023-04-15T11:46:32.630Z,63.41
2023-04-15T11:51:37.049Z,62.98
2023-04-15T11:56:39.909Z,62.92
2023-04-15T12:01:50.296Z,62.75
2023-04-15T12:06:54.455Z,62.82
2023-04-15T12:11:59.206Z,63.63
2023-04-15T12:17:04.792Z,63.66
2023-04-15T12:22:12.255Z,63.21
2023-04-15T12:27:16.508Z,62.72
2023-04-15T12:32:21.847Z,62.63
2023-04-15T12:37:26.202Z,62.86
2023-04-15T12:42:28.902Z,62.79
2023-04-15T12:47:31.878Z,62.87
2023-04-15T12:52:36.087Z,63.66
2023-04-15T12:57:39.695Z,63.38
2023-04-15T13:02:45.322Z,63.69
2023-04-15T13:07:49.558Z,62.97
2023-04-15T13:14:55.376Z,60.99
2023-04-15T13:19:58.221Z,62.78
2023-04-15T13:25:00.936Z,63.04
2023-04-15T13:30:05.567Z,63.00
2023-04-15T13:35:09.402Z,62.90
2023-04-15T13:40:12.758Z,63.06
2023-04-15T13:45:16.883Z,62.96
2023-04-15T13:50:19.658Z,63.27
2023-04-15T13:55:24.557Z,63.10
2023-04-15T14:00:30.322Z,63.51
2023-04-15T14:05:33.451Z,64.02
2023-04-15T14:10:36.644Z,63.86
2023-04-15T14:15:40.926Z,63.67
2023-04-15T14:20:43.704Z,64.09
2023-04-15T14:25:48.352Z,64.71
2023-04-15T14:30:53.406Z,64.99
2023-04-15T14:35:56.421Z,65.48
2023-04-15T14:40:59.755Z,65.90
2023-04-15T14:46:03.956Z,65.89
2023-04-15T14:51:07.219Z,65.70
2023-04-15T14:56:09.952Z,65.42
2023-04-15T15:01:14.151Z,64.94
2023-04-15T15:06:17.035Z,64.35
2023-04-15T15:11:19.852Z,63.87
2023-04-15T15:16:24.061Z,63.69
2023-04-15T15:21:27.670Z,63.00
2023-04-15T15:26:30.483Z,63.25
2023-04-15T15:31:35.951Z,62.89
2023-04-15T15:36:38.898Z,58.84
2023-04-15T15:41:41.687Z,58.98
2023-04-15T15:46:46.171Z,59.89
2023-04-15T15:51:49.898Z,60.31
2023-04-15T15:56:52.748Z,60.45
2023-04-15T16:01:57.051Z,60.87
2023-04-15T16:06:59.902Z,61.82
2023-04-15T16:12:03.677Z,62.70
2023-04-15T16:17:07.782Z,63.48
2023-04-15T16:22:10.591Z,64.26
2023-04-15T16:27:16.078Z,64.60
2023-04-15T16:32:20.368Z,63.96
2023-04-15T16:37:23.257Z,63.42
2023-04-15T16:42:26.204Z,62.96
2023-04-15T16:47:30.578Z,62.24
2023-04-15T16:52:33.941Z,61.71
2023-04-15T16:57:36.682Z,61.65
2023-04-15T17:03:01.531Z,61.20
2023-04-15T17:08:05.391Z,61.11
2023-04-15T17:13:08.320Z,61.03
2023-04-15T17:18:12.818Z,60.83
2023-04-15T17:23:15.900Z,60.54
2023-04-15T17:28:18.975Z,60.59
2023-04-15T17:33:53.260Z,60.33
2023-04-15T17:38:46.042Z,60.16
2023-04-15T17:43:48.899Z,59.89
2023-04-15T17:48:53.210Z,59.93
2023-04-15T17:53:56.091Z,59.84
2023-04-15T17:59:00.400Z,59.70
2023-04-15T18:04:04.955Z,59.89
2023-04-15T18:09:09.180Z,59.88
2023-04-15T18:14:13.950Z,59.77
2023-04-15T18:19:21.676Z,59.68
2023-04-15T18:24:24.414Z,59.55
2023-04-15T18:29:27.299Z,59.55
2023-04-15T18:34:31.623Z,59.52
2023-04-15T18:39:34.360Z,59.51
2023-04-15T18:44:37.244Z,59.56
2023-04-15T18:49:41.455Z,59.46
2023-04-15T18:54:44.255Z,59.65
2023-04-15T18:59:47.127Z,59.50
2023-04-15T19:04:51.247Z,59.34
2023-04-15T19:11:25.073Z,59.19
2023-04-15T19:16:27.917Z,59.35
2023-04-15T19:21:31.595Z,59.10
2023-04-15T19:26:37.143Z,59.16
2023-04-15T19:31:40.064Z,58.90
